LOT151 EPWA-LTAI
Flight info
| Callsign | LOT151 |
|---|---|
| Flight time | N/A |
| Altitude | 35000 |
| Route | EVINA7G EVINA DCT KOTEK DCT KENIN/N0452F370 DCT UPAMA DCT ADORU UL606 CRD UL854 KOZLU KOZLU1U |
| Aircraft | B38M/M-SDE2E3FGHIRWXY/LB1 |
Departure
| Time | 2026-05-05 19:08 |
|---|---|
| Airport | Warsaw Chopin Airport (EPWA) |
Arrival
| Time | N/A |
|---|---|
| Airport | Antalya International Airport (LTAI) |
| Time | Latitude | Longitude | Altitude | Speed | Heading |
|---|---|---|---|---|---|
| 2026-05-05 18:38 | 52.17002 | 20.96863 | 364 ft | 0 kts | 242° |
| 2026-05-05 19:02 | 52.17002 | 20.96862 | 364 ft | 1 kts | 242° |
| 2026-05-05 19:02 | 52.16983 | 20.96807 | 368 ft | 8 kts | 234° |
| 2026-05-05 19:03 | 52.16934 | 20.96800 | 367 ft | 8 kts | 154° |
| 2026-05-05 19:03 | 52.16883 | 20.96842 | 368 ft | 8 kts | 150° |
| 2026-05-05 19:03 | 52.16822 | 20.96896 | 364 ft | 12 kts | 152° |
| 2026-05-05 19:03 | 52.16728 | 20.96978 | 363 ft | 19 kts | 152° |
| 2026-05-05 19:04 | 52.16643 | 20.97135 | 364 ft | 19 kts | 115° |
| 2026-05-05 19:04 | 52.16585 | 20.97337 | 364 ft | 20 kts | 115° |
| 2026-05-05 19:04 | 52.16525 | 20.97547 | 362 ft | 21 kts | 114° |
| 2026-05-05 19:04 | 52.16472 | 20.97737 | 363 ft | 15 kts | 114° |
| 2026-05-05 19:05 | 52.16441 | 20.97813 | 362 ft | 0 kts | 139° |
| 2026-05-05 19:05 | 52.16440 | 20.97820 | 365 ft | 3 kts | 111° |
| 2026-05-05 19:05 | 52.16424 | 20.97845 | 361 ft | 2 kts | 182° |
| 2026-05-05 19:06 | 52.16403 | 20.97816 | 362 ft | 9 kts | 221° |
| 2026-05-05 19:06 | 52.16327 | 20.97737 | 364 ft | 16 kts | 217° |
| 2026-05-05 19:06 | 52.16314 | 20.97646 | 358 ft | 0 kts | 285° |
| 2026-05-05 19:07 | 52.16314 | 20.97645 | 358 ft | 0 kts | 285° |
| 2026-05-05 19:07 | 52.16455 | 20.97133 | 365 ft | 85 kts | 294° |
| 2026-05-05 19:07 | 52.16790 | 20.95948 | 366 ft | 147 kts | 294° |
| 2026-05-05 19:08 | 52.17274 | 20.94171 | 434 ft | 191 kts | 292° |
| 2026-05-05 19:08 | 52.17869 | 20.92059 | 787 ft | 220 kts | 294° |
| 2026-05-05 19:08 | 52.18355 | 20.89749 | 1848 ft | 203 kts | 277° |
| 2026-05-05 19:08 | 52.18383 | 20.87461 | 2637 ft | 211 kts | 254° |